createdAt,value
2023-04-13T00:00:08.170Z,38.89
2023-04-13T00:01:08.177Z,38.88
2023-04-13T00:02:08.245Z,38.87
2023-04-13T00:03:08.290Z,38.86
2023-04-13T00:04:08.257Z,38.88
2023-04-13T00:05:08.212Z,38.89
2023-04-13T00:06:08.202Z,38.89
2023-04-13T00:07:08.204Z,38.87
2023-04-13T00:08:08.221Z,38.90
2023-04-13T00:09:08.222Z,38.89
2023-04-13T00:10:08.232Z,38.88
2023-04-13T00:11:08.247Z,38.88
2023-04-13T00:12:08.241Z,38.87
2023-04-13T00:13:08.234Z,38.87
2023-04-13T00:14:08.236Z,38.86
2023-04-13T00:15:08.247Z,38.85
2023-04-13T00:16:08.251Z,38.87
2023-04-13T00:17:08.317Z,38.86
2023-04-13T00:18:08.251Z,38.86
2023-04-13T00:19:08.266Z,38.86
2023-04-13T00:20:08.270Z,38.85
2023-04-13T00:21:08.270Z,38.84
2023-04-13T00:22:08.257Z,38.85
2023-04-13T00:23:08.272Z,38.84
2023-04-13T00:24:08.271Z,38.85
2023-04-13T00:25:08.278Z,38.85
2023-04-13T00:26:08.281Z,38.83
2023-04-13T00:27:08.286Z,38.84
2023-04-13T00:28:08.296Z,38.85
2023-04-13T00:29:08.312Z,38.85
2023-04-13T00:30:08.299Z,38.85
2023-04-13T00:31:08.403Z,38.81
2023-04-13T00:32:08.307Z,38.86
2023-04-13T00:33:08.349Z,38.83
2023-04-13T00:34:08.320Z,38.84
2023-04-13T00:35:08.328Z,38.85
2023-04-13T00:36:08.345Z,38.82
2023-04-13T00:37:08.407Z,38.80
2023-04-13T00:38:08.333Z,38.83
2023-04-13T00:39:08.354Z,38.82
2023-04-13T00:40:08.354Z,38.85
2023-04-13T00:41:08.343Z,38.82
2023-04-13T00:42:08.336Z,38.84
2023-04-13T00:43:08.333Z,38.82
2023-04-13T00:44:08.337Z,38.80
2023-04-13T00:45:08.340Z,38.85
2023-04-13T00:46:08.392Z,38.81
2023-04-13T00:47:08.354Z,38.82
2023-04-13T00:48:08.385Z,38.84
2023-04-13T00:49:08.384Z,38.83
2023-04-13T00:50:08.381Z,38.83
2023-04-13T00:51:08.378Z,38.86
2023-04-13T00:52:08.380Z,38.85
2023-04-13T00:53:10.665Z,38.83
2023-04-13T00:54:08.536Z,38.79
2023-04-13T00:55:08.536Z,38.82
2023-04-13T00:56:08.541Z,38.80
2023-04-13T00:57:08.540Z,38.78
2023-04-13T00:58:08.533Z,38.79
2023-04-13T00:59:08.541Z,38.78
2023-04-13T01:00:08.556Z,38.82
2023-04-13T01:01:08.584Z,38.80
2023-04-13T01:02:08.702Z,38.80
2023-04-13T01:03:08.689Z,38.79
2023-04-13T01:04:08.565Z,38.78
2023-04-13T01:05:08.533Z,38.78
2023-04-13T01:06:08.544Z,38.79
2023-04-13T01:07:08.535Z,38.78
2023-04-13T01:08:08.528Z,38.78
2023-04-13T01:09:08.561Z,38.79
2023-04-13T01:10:08.537Z,38.78
2023-04-13T01:11:08.545Z,38.79
2023-04-13T01:12:08.522Z,38.76
2023-04-13T01:13:08.527Z,38.80
2023-04-13T01:14:08.545Z,38.77
2023-04-13T01:15:08.547Z,38.77
2023-04-13T01:16:08.641Z,38.80
2023-04-13T01:17:08.525Z,38.79
2023-04-13T01:18:08.610Z,38.77
2023-04-13T01:19:08.532Z,38.77
2023-04-13T01:20:08.569Z,38.77
2023-04-13T01:21:08.525Z,38.77
2023-04-13T01:22:08.523Z,38.77
2023-04-13T01:23:08.557Z,38.79
2023-04-13T01:24:08.526Z,38.79
2023-04-13T01:25:08.531Z,38.75
2023-04-13T01:26:08.541Z,38.76
2023-04-13T01:27:08.538Z,38.76
2023-04-13T01:28:08.546Z,38.75
2023-04-13T01:29:08.545Z,38.76
2023-04-13T01:30:08.552Z,38.77
2023-04-13T01:31:08.614Z,38.79
2023-04-13T01:32:08.575Z,38.80
2023-04-13T01:33:08.599Z,38.76
2023-04-13T01:34:08.578Z,38.77
2023-04-13T01:35:08.586Z,38.76
2023-04-13T01:36:08.595Z,38.76
2023-04-13T01:37:08.607Z,38.75
2023-04-13T01:38:08.614Z,38.75
2023-04-13T01:39:08.564Z,38.78
2023-04-13T01:40:08.554Z,38.77
2023-04-13T01:41:08.616Z,38.78
2023-04-13T01:42:08.561Z,38.78
2023-04-13T01:43:08.569Z,38.77
2023-04-13T01:44:08.547Z,38.75
2023-04-13T01:45:08.535Z,38.78
2023-04-13T01:46:08.581Z,38.76
2023-04-13T01:47:08.528Z,38.76
2023-04-13T01:48:08.531Z,38.74
2023-04-13T01:49:08.517Z,38.77
2023-04-13T01:50:08.523Z,38.77
2023-04-13T01:51:08.501Z,38.73
2023-04-13T01:52:08.508Z,38.73
2023-04-13T01:53:08.498Z,38.72
2023-04-13T01:54:08.492Z,38.74
2023-04-13T01:55:08.480Z,38.74
2023-04-13T01:56:08.476Z,38.76
2023-04-13T01:57:08.461Z,38.72
2023-04-13T01:58:08.472Z,38.73
2023-04-13T01:59:08.464Z,38.72
2023-04-13T02:00:08.448Z,38.75
2023-04-13T02:01:08.506Z,38.75
2023-04-13T02:02:08.543Z,38.72
2023-04-13T02:03:08.499Z,38.73
2023-04-13T02:04:08.545Z,38.70
2023-04-13T02:05:08.428Z,38.70
2023-04-13T02:06:08.433Z,38.70
2023-04-13T02:07:08.432Z,38.68
2023-04-13T02:08:08.437Z,38.67
2023-04-13T02:09:08.454Z,38.68
2023-04-13T02:10:08.460Z,38.70
2023-04-13T02:11:08.457Z,38.70
2023-04-13T02:12:08.460Z,38.71
2023-04-13T02:13:08.468Z,38.69
2023-04-13T02:14:08.545Z,38.70
2023-04-13T02:15:08.481Z,38.71
2023-04-13T02:16:08.575Z,38.74
2023-04-13T02:17:08.494Z,38.71
2023-04-13T02:18:08.504Z,38.73
2023-04-13T02:19:08.536Z,38.68
2023-04-13T02:20:08.513Z,38.66
2023-04-13T02:21:08.594Z,38.68
2023-04-13T02:22:08.525Z,38.69
2023-04-13T02:23:08.536Z,38.65
2023-04-13T02:24:08.556Z,38.67
2023-04-13T02:25:08.560Z,38.66
2023-04-13T02:26:08.590Z,38.70
2023-04-13T02:27:08.559Z,38.67
2023-04-13T02:28:08.570Z,38.68
2023-04-13T02:29:08.634Z,38.67
2023-04-13T02:30:08.533Z,38.64
2023-04-13T02:31:08.530Z,38.66
2023-04-13T02:32:08.551Z,38.65
2023-04-13T02:33:08.520Z,38.63
2023-04-13T02:34:08.524Z,38.66
2023-04-13T02:35:08.558Z,38.64
2023-04-13T02:36:08.545Z,38.67
2023-04-13T02:37:08.557Z,38.62
2023-04-13T02:38:08.553Z,38.64
2023-04-13T02:39:08.580Z,38.64
2023-04-13T02:40:08.571Z,38.63
2023-04-13T02:41:08.604Z,38.60
2023-04-13T02:42:08.568Z,38.61
2023-04-13T02:43:08.543Z,38.62
2023-04-13T02:44:08.570Z,38.65
2023-04-13T02:45:08.551Z,38.64
2023-04-13T02:46:08.561Z,38.63
2023-04-13T02:47:08.518Z,38.63
2023-04-13T02:48:08.504Z,38.61
2023-04-13T02:49:08.513Z,38.61
2023-04-13T02:50:08.528Z,38.62
2023-04-13T02:51:08.516Z,38.61
2023-04-13T02:52:08.549Z,38.63
2023-04-13T02:53:08.540Z,38.60
2023-04-13T02:54:08.549Z,38.61
2023-04-13T02:55:08.564Z,38.61
2023-04-13T02:56:08.559Z,38.60
2023-04-13T02:57:08.564Z,38.60
2023-04-13T02:58:08.590Z,38.61
2023-04-13T02:59:08.602Z,38.61
2023-04-13T03:00:08.612Z,38.62
2023-04-13T03:01:08.649Z,38.60
2023-04-13T03:02:08.671Z,38.60
2023-04-13T03:03:08.704Z,38.61
2023-04-13T03:04:08.675Z,38.62
2023-04-13T03:05:08.693Z,38.61
2023-04-13T03:06:08.687Z,38.57
2023-04-13T03:07:08.721Z,38.55
2023-04-13T03:08:08.701Z,38.56
2023-04-13T03:09:08.715Z,38.57
2023-04-13T03:10:08.719Z,38.55
2023-04-13T03:11:08.727Z,38.53
2023-04-13T03:12:08.733Z,38.56
2023-04-13T03:13:08.731Z,38.54
2023-04-13T03:14:08.732Z,38.55
2023-04-13T03:15:08.736Z,38.53
2023-04-13T03:16:08.746Z,38.57
2023-04-13T03:17:08.819Z,38.56
2023-04-13T03:18:08.751Z,38.55
2023-04-13T03:19:08.752Z,38.55
2023-04-13T03:20:08.777Z,38.51
2023-04-13T03:21:08.780Z,38.55
2023-04-13T03:22:08.806Z,38.54
2023-04-13T03:23:08.825Z,38.53
2023-04-13T03:24:08.798Z,38.54
2023-04-13T03:25:08.808Z,38.53
2023-04-13T03:26:08.824Z,38.48
2023-04-13T03:27:08.834Z,38.52
2023-04-13T03:28:08.833Z,38.51
2023-04-13T03:29:08.820Z,38.51
2023-04-13T03:30:08.844Z,38.46
2023-04-13T03:31:08.854Z,38.50
2023-04-13T03:32:08.812Z,38.50
2023-04-13T03:33:08.840Z,38.47
2023-04-13T03:34:08.832Z,38.49
2023-04-13T03:35:09.060Z,38.47
2023-04-13T03:36:08.872Z,38.48
2023-04-13T03:37:08.854Z,38.46
2023-04-13T03:38:08.873Z,38.47
2023-04-13T03:39:08.871Z,38.46
2023-04-13T03:40:08.886Z,38.48
2023-04-13T03:41:08.876Z,38.48
2023-04-13T03:42:08.881Z,38.48
2023-04-13T03:43:08.868Z,38.48
2023-04-13T03:44:08.906Z,38.45
2023-04-13T03:45:08.886Z,38.43
2023-04-13T03:46:08.906Z,38.44
2023-04-13T03:47:08.876Z,38.44
2023-04-13T03:48:08.876Z,38.41
2023-04-13T03:49:08.854Z,38.41
2023-04-13T03:50:08.876Z,38.41
2023-04-13T03:51:08.874Z,38.44
2023-04-13T03:52:08.874Z,38.39
2023-04-13T03:53:08.874Z,38.39
2023-04-13T03:54:08.846Z,38.38
2023-04-13T03:55:08.885Z,38.39
2023-04-13T03:56:08.842Z,38.38
2023-04-13T03:57:08.822Z,38.40
2023-04-13T03:58:08.827Z,38.42
2023-04-13T03:59:08.869Z,38.39
2023-04-13T04:00:08.823Z,38.40
2023-04-13T04:01:08.802Z,38.38
2023-04-13T04:02:08.819Z,38.37
2023-04-13T04:03:08.853Z,38.35
2023-04-13T04:04:08.945Z,38.35
2023-04-13T04:05:08.837Z,38.36
2023-04-13T04:06:08.800Z,38.38
2023-04-13T04:07:08.789Z,38.36
2023-04-13T04:08:08.779Z,38.40
2023-04-13T04:09:09.080Z,38.38
2023-04-13T04:10:08.786Z,38.38
2023-04-13T04:11:08.796Z,38.38
2023-04-13T04:12:08.784Z,38.34
2023-04-13T04:13:08.777Z,38.36
2023-04-13T04:14:08.776Z,38.36
2023-04-13T04:15:08.777Z,38.36
2023-04-13T04:16:08.836Z,38.34
2023-04-13T04:17:08.794Z,38.36
2023-04-13T04:18:08.906Z,38.34
2023-04-13T04:19:08.798Z,38.33
2023-04-13T04:20:08.792Z,38.34
2023-04-13T04:21:08.799Z,38.33
2023-04-13T04:22:08.827Z,38.35
2023-04-13T04:23:08.835Z,38.34
2023-04-13T04:24:08.846Z,38.32
2023-04-13T04:25:08.921Z,38.32
2023-04-13T04:26:08.856Z,38.34
2023-04-13T04:27:08.859Z,38.33
2023-04-13T04:28:08.864Z,38.33
2023-04-13T04:29:08.981Z,38.34
2023-04-13T04:30:08.882Z,38.34
2023-04-13T04:31:08.877Z,38.31
2023-04-13T04:32:08.916Z,38.35
2023-04-13T04:33:08.896Z,38.35
2023-04-13T04:34:08.910Z,38.33
2023-04-13T04:35:08.928Z,38.31
2023-04-13T04:36:08.962Z,38.32
2023-04-13T04:37:19.662Z,38.29
2023-04-13T04:38:09.899Z,38.31
2023-04-13T04:39:08.833Z,38.24
2023-04-13T04:40:08.780Z,38.29
2023-04-13T04:41:08.800Z,38.27
2023-04-13T04:42:08.674Z,38.27
2023-04-13T04:43:08.611Z,38.28
2023-04-13T04:44:08.568Z,38.30
2023-04-13T04:45:08.496Z,38.27
2023-04-13T04:46:08.469Z,38.25
2023-04-13T04:47:08.392Z,38.27
2023-04-13T04:48:08.432Z,38.26
2023-04-13T04:49:08.375Z,38.27
2023-04-13T04:50:08.361Z,38.27
2023-04-13T04:51:08.511Z,38.25
2023-04-13T04:52:08.350Z,38.27
2023-04-13T04:53:08.343Z,38.24
2023-04-13T04:54:08.400Z,38.26
2023-04-13T04:55:08.355Z,38.24
2023-04-13T04:56:08.371Z,38.25
2023-04-13T04:57:08.359Z,38.23
2023-04-13T04:58:08.363Z,38.21
2023-04-13T04:59:08.377Z,38.22
2023-04-13T05:00:08.347Z,38.21
2023-04-13T05:01:08.417Z,38.22
2023-04-13T05:02:08.397Z,38.20
2023-04-13T05:03:08.478Z,38.21
2023-04-13T05:04:08.319Z,38.30
2023-04-13T05:05:08.359Z,38.29
2023-04-13T05:06:08.328Z,38.31
2023-04-13T05:07:08.329Z,38.38
2023-04-13T05:08:08.336Z,38.28
2023-04-13T05:09:08.338Z,38.33
2023-04-13T05:10:08.356Z,38.35
2023-04-13T05:11:08.365Z,38.48
2023-04-13T05:12:08.364Z,38.45
2023-04-13T05:13:08.354Z,38.77
2023-04-13T05:14:08.336Z,38.93
2023-04-13T05:15:08.321Z,39.42
2023-04-13T05:16:08.339Z,39.06
2023-04-13T05:17:08.226Z,38.97
2023-04-13T05:18:08.190Z,39.07
2023-04-13T05:19:08.166Z,39.65
2023-04-13T05:20:08.121Z,39.59
2023-04-13T05:21:08.090Z,39.68
2023-04-13T05:22:08.051Z,39.90
2023-04-13T05:23:08.024Z,40.67
2023-04-13T05:24:07.973Z,40.46
2023-04-13T05:25:08.017Z,40.91
2023-04-13T05:26:07.881Z,41.44
2023-04-13T05:27:08.629Z,41.60
2023-04-13T05:28:07.797Z,42.07
2023-04-13T05:29:07.764Z,41.45
2023-04-13T05:30:07.899Z,41.43
2023-04-13T05:31:09.607Z,41.81
2023-04-13T05:32:07.645Z,41.76
2023-04-13T05:33:08.537Z,41.17
2023-04-13T05:34:08.119Z,40.51
2023-04-13T05:35:08.051Z,39.58
2023-04-13T05:36:07.431Z,39.63
2023-04-13T05:37:07.632Z,39.63
2023-04-13T05:38:07.330Z,39.45
2023-04-13T05:39:07.287Z,39.40
2023-04-13T05:40:07.313Z,39.38
2023-04-13T05:41:08.041Z,39.42
2023-04-13T05:42:07.330Z,39.47
2023-04-13T05:43:07.344Z,39.49
2023-04-13T05:44:07.355Z,39.46
2023-04-13T05:45:07.402Z,39.49
2023-04-13T05:46:07.433Z,40.45
2023-04-13T05:47:07.412Z,40.51
2023-04-13T05:48:07.442Z,40.52
2023-04-13T05:49:07.493Z,39.99
2023-04-13T05:50:07.442Z,39.80
2023-04-13T05:51:08.137Z,40.28
2023-04-13T05:52:07.471Z,39.84
2023-04-13T05:53:07.476Z,39.67
2023-04-13T05:54:07.494Z,39.55
2023-04-13T05:55:07.511Z,39.67
2023-04-13T05:56:07.507Z,40.47
2023-04-13T05:57:07.480Z,39.95
2023-04-13T05:58:07.455Z,39.43
2023-04-13T05:59:07.452Z,38.92
2023-04-13T06:00:07.447Z,38.71
2023-04-13T06:01:07.426Z,38.40
2023-04-13T06:02:07.510Z,39.20
2023-04-13T06:03:07.549Z,38.99
2023-04-13T06:04:07.571Z,38.57
2023-04-13T06:05:07.318Z,38.50
2023-04-13T06:06:07.289Z,39.23
2023-04-13T06:07:07.249Z,39.43
2023-04-13T06:08:07.256Z,39.66
2023-04-13T06:09:07.251Z,39.64
2023-04-13T06:10:07.272Z,39.56
2023-04-13T06:11:07.257Z,39.53
2023-04-13T06:12:07.273Z,39.55
2023-04-13T06:13:07.288Z,39.47
2023-04-13T06:14:08.231Z,39.38
2023-04-13T06:15:07.194Z,39.31
2023-04-13T06:16:07.130Z,39.22
2023-04-13T06:17:07.193Z,39.27
2023-04-13T06:18:07.214Z,39.23
2023-04-13T06:19:06.963Z,39.34
2023-04-13T06:20:06.908Z,39.42
2023-04-13T06:21:06.849Z,39.52
2023-04-13T06:22:06.824Z,39.59
2023-04-13T06:23:06.814Z,39.84
2023-04-13T06:24:06.769Z,39.96
2023-04-13T06:25:06.756Z,40.30
2023-04-13T06:26:06.706Z,40.72
2023-04-13T06:27:06.660Z,40.94
2023-04-13T06:28:06.627Z,41.03
2023-04-13T06:29:06.568Z,40.94
2023-04-13T06:30:06.512Z,40.42
2023-04-13T06:31:06.477Z,40.19
2023-04-13T06:32:06.415Z,40.14
2023-04-13T06:33:06.368Z,40.53
2023-04-13T06:34:06.306Z,40.29
2023-04-13T06:35:06.254Z,40.02
2023-04-13T06:36:06.181Z,40.21
2023-04-13T06:37:06.150Z,39.96
2023-04-13T06:38:06.215Z,39.92
2023-04-13T06:39:06.140Z,39.91
2023-04-13T06:40:07.080Z,39.92
2023-04-13T06:41:06.564Z,39.68
2023-04-13T06:42:06.108Z,39.69
2023-04-13T06:43:08.935Z,39.65
2023-04-13T06:44:06.857Z,39.74
2023-04-13T06:45:05.808Z,39.88
2023-04-13T06:46:06.698Z,39.83
2023-04-13T06:47:05.688Z,39.72
2023-04-13T06:48:05.731Z,39.89
2023-04-13T06:49:05.664Z,39.94
2023-04-13T06:50:05.527Z,39.86
2023-04-13T06:51:05.478Z,39.80
2023-04-13T06:52:05.460Z,39.75
2023-04-13T06:53:05.464Z,39.70
2023-04-13T06:54:05.476Z,39.71
2023-04-13T06:55:05.472Z,39.68
2023-04-13T06:56:05.476Z,39.66
2023-04-13T06:57:05.507Z,39.65
2023-04-13T06:58:05.487Z,39.71
2023-04-13T06:59:05.933Z,39.73
2023-04-13T07:00:06.834Z,39.72
2023-04-13T07:01:05.498Z,39.73
2023-04-13T07:02:05.467Z,39.79
2023-04-13T07:03:05.525Z,39.81
2023-04-13T07:04:05.353Z,39.79
2023-04-13T07:05:05.283Z,39.79
2023-04-13T07:06:05.207Z,39.78
2023-04-13T07:07:05.160Z,39.83
2023-04-13T07:08:05.108Z,39.84
2023-04-13T07:09:05.075Z,39.84
2023-04-13T07:10:05.084Z,39.76
2023-04-13T07:11:05.087Z,39.79
2023-04-13T07:12:05.103Z,39.89
2023-04-13T07:13:05.271Z,40.11
2023-04-13T07:14:05.134Z,40.01
2023-04-13T07:15:05.130Z,39.94
2023-04-13T07:16:05.248Z,40.21
2023-04-13T07:17:05.107Z,40.44
2023-04-13T07:18:05.188Z,40.59
2023-04-13T07:19:05.049Z,40.66
2023-04-13T07:20:05.033Z,40.71
2023-04-13T07:21:05.035Z,40.70
2023-04-13T07:22:05.061Z,40.72
2023-04-13T07:23:05.054Z,40.60
2023-04-13T07:24:05.589Z,40.73
2023-04-13T07:25:05.099Z,40.86
2023-04-13T07:26:05.106Z,40.81
2023-04-13T07:27:05.677Z,40.74
2023-04-13T07:28:05.131Z,40.32
2023-04-13T07:29:05.156Z,40.13
2023-04-13T07:30:05.149Z,40.11
2023-04-13T07:31:05.210Z,40.09
2023-04-13T07:32:05.178Z,40.15
2023-04-13T07:33:05.249Z,40.10
2023-04-13T07:34:05.213Z,40.20
2023-04-13T07:35:05.235Z,40.24
2023-04-13T07:36:05.236Z,40.19
2023-04-13T07:37:05.254Z,40.29
2023-04-13T07:38:05.243Z,40.30
2023-04-13T07:39:05.256Z,40.25
2023-04-13T07:40:05.261Z,40.19
2023-04-13T07:41:05.280Z,40.06
2023-04-13T07:42:05.293Z,40.05
2023-04-13T07:43:05.316Z,40.06
2023-04-13T07:44:05.307Z,40.02
2023-04-13T07:45:05.333Z,40.03
2023-04-13T07:46:05.333Z,39.96
2023-04-13T07:47:05.462Z,39.95
2023-04-13T07:48:05.409Z,39.89
2023-04-13T07:49:05.400Z,39.87
2023-04-13T07:50:05.392Z,40.07
2023-04-13T07:51:05.394Z,40.20
2023-04-13T07:52:05.410Z,40.35
2023-04-13T07:53:05.420Z,40.17
2023-04-13T07:54:05.440Z,40.08
2023-04-13T07:55:05.443Z,39.99
2023-04-13T07:56:05.458Z,39.91
2023-04-13T07:57:05.476Z,39.92
2023-04-13T07:58:05.489Z,39.95
2023-04-13T07:59:05.516Z,39.98
2023-04-13T08:00:05.528Z,39.97
2023-04-13T08:01:05.526Z,39.91
2023-04-13T08:02:05.597Z,39.89
2023-04-13T08:03:05.663Z,39.90
2023-04-13T08:04:05.726Z,39.82
2023-04-13T08:05:05.830Z,39.79
2023-04-13T08:06:05.589Z,39.78
2023-04-13T08:07:06.541Z,39.81
2023-04-13T08:08:05.486Z,39.72
2023-04-13T08:09:05.434Z,39.80
2023-04-13T08:10:05.380Z,39.72
2023-04-13T08:11:05.324Z,39.89
2023-04-13T08:12:05.321Z,40.20
2023-04-13T08:13:05.252Z,40.23
2023-04-13T08:14:05.202Z,40.31
2023-04-13T08:15:05.156Z,40.50
2023-04-13T08:16:09.725Z,40.60
2023-04-13T08:17:05.118Z,40.75
2023-04-13T08:18:05.034Z,40.51
2023-04-13T08:19:04.974Z,40.64
2023-04-13T08:20:05.618Z,40.76
2023-04-13T08:21:04.860Z,40.95
2023-04-13T08:22:04.833Z,40.45
2023-04-13T08:23:04.793Z,39.67
2023-04-13T08:24:04.741Z,39.49
2023-04-13T08:25:04.744Z,39.04
2023-04-13T08:26:04.706Z,38.46
2023-04-13T08:27:04.616Z,38.38
2023-04-13T08:28:04.573Z,38.69
2023-04-13T08:29:04.542Z,38.52
2023-04-13T08:30:04.480Z,37.23
2023-04-13T08:31:04.443Z,37.51
2023-04-13T08:32:04.449Z,36.60
2023-04-13T08:33:04.423Z,36.91
2023-04-13T08:34:04.333Z,36.45
2023-04-13T08:35:04.296Z,35.48
2023-04-13T08:36:04.426Z,35.47
2023-04-13T08:37:04.447Z,35.68
2023-04-13T08:38:04.709Z,36.35
2023-04-13T08:39:04.156Z,37.52
2023-04-13T08:40:04.112Z,38.05
2023-04-13T08:41:04.085Z,38.36
2023-04-13T08:42:04.767Z,38.52
2023-04-13T08:43:03.962Z,38.63
2023-04-13T08:44:03.923Z,38.92
2023-04-13T08:45:03.910Z,39.00
2023-04-13T08:46:03.957Z,39.04
2023-04-13T08:47:03.948Z,38.99
2023-04-13T08:48:04.103Z,38.92
2023-04-13T08:49:03.987Z,38.89
2023-04-13T08:50:03.979Z,38.90
2023-04-13T08:51:04.002Z,38.84
2023-04-13T08:52:04.005Z,38.94
2023-04-13T08:53:04.017Z,39.00
2023-04-13T08:54:04.028Z,39.02
2023-04-13T08:55:04.083Z,39.03
2023-04-13T08:56:04.031Z,39.05
2023-04-13T08:57:04.054Z,39.01
2023-04-13T08:58:04.078Z,38.94
2023-04-13T08:59:04.061Z,39.03
2023-04-13T09:00:04.070Z,39.07
2023-04-13T09:01:04.100Z,39.06
2023-04-13T09:02:04.212Z,39.09
2023-04-13T09:03:06.507Z,39.13
2023-04-13T09:04:04.179Z,39.13
2023-04-13T09:05:04.194Z,39.10
2023-04-13T09:06:03.931Z,39.13
2023-04-13T09:07:03.957Z,39.06
2023-04-13T09:08:03.816Z,39.06
2023-04-13T09:09:03.772Z,39.07
2023-04-13T09:10:03.742Z,39.12
2023-04-13T09:11:03.691Z,39.12
2023-04-13T09:12:03.638Z,39.19
2023-04-13T09:13:03.813Z,39.31
2023-04-13T09:14:03.540Z,39.31
2023-04-13T09:15:04.136Z,39.32
2023-04-13T09:16:03.442Z,39.21
2023-04-13T09:17:05.632Z,39.47
2023-04-13T09:18:03.464Z,39.23
2023-04-13T09:19:03.312Z,39.40
2023-04-13T09:20:03.324Z,39.13
2023-04-13T09:21:03.232Z,39.24
2023-04-13T09:22:03.190Z,39.20
2023-04-13T09:23:04.954Z,38.90
2023-04-13T09:24:03.081Z,39.06
2023-04-13T09:25:03.226Z,38.90
2023-04-13T09:26:03.719Z,39.19
2023-04-13T09:27:02.947Z,38.86
2023-04-13T09:28:02.881Z,38.75
2023-04-13T09:29:03.651Z,38.66
2023-04-13T09:30:02.798Z,38.65
2023-04-13T09:31:02.807Z,38.45
2023-04-13T09:32:02.689Z,38.39
2023-04-13T09:33:02.776Z,38.32
2023-04-13T09:34:02.689Z,38.20
2023-04-13T09:35:02.694Z,38.13
2023-04-13T09:36:02.689Z,38.13
2023-04-13T09:37:02.690Z,38.14
2023-04-13T09:38:02.745Z,38.05
2023-04-13T09:39:02.991Z,38.07
2023-04-13T09:40:02.709Z,38.07
2023-04-13T09:41:02.688Z,38.16
2023-04-13T09:42:02.694Z,38.20
2023-04-13T09:43:02.738Z,38.27
2023-04-13T09:44:02.708Z,38.31
2023-04-13T09:45:02.707Z,38.31
2023-04-13T09:46:02.726Z,38.31
2023-04-13T09:47:02.745Z,38.24
2023-04-13T09:48:02.777Z,38.25
2023-04-13T09:49:02.989Z,38.22
2023-04-13T09:50:02.720Z,38.22
2023-04-13T09:51:02.724Z,38.23
2023-04-13T09:52:02.725Z,38.22
2023-04-13T09:53:02.733Z,38.20
2023-04-13T09:54:02.737Z,38.25
2023-04-13T09:55:02.733Z,38.54
2023-04-13T09:56:02.738Z,38.47
2023-04-13T09:57:02.749Z,38.26
2023-04-13T09:58:02.747Z,38.16
2023-04-13T09:59:02.744Z,38.15
2023-04-13T10:00:02.761Z,38.18
2023-04-13T10:01:02.749Z,38.24
2023-04-13T10:02:02.846Z,38.25
2023-04-13T10:03:02.831Z,38.19
2023-04-13T10:04:02.783Z,38.18
2023-04-13T10:05:03.712Z,38.46
2023-04-13T10:06:02.870Z,38.62
2023-04-13T10:07:02.812Z,38.63
2023-04-13T10:08:02.820Z,38.67
2023-04-13T10:09:02.860Z,38.83
2023-04-13T10:10:02.859Z,39.01
2023-04-13T10:11:02.878Z,39.73
2023-04-13T10:12:03.786Z,39.92
2023-04-13T10:13:02.813Z,39.74
2023-04-13T10:14:02.857Z,39.88
2023-04-13T10:15:02.759Z,39.83
2023-04-13T10:16:04.204Z,40.02
2023-04-13T10:17:02.716Z,39.82
2023-04-13T10:18:02.739Z,39.95
2023-04-13T10:19:02.738Z,39.64
2023-04-13T10:20:02.743Z,39.90
2023-04-13T10:21:02.742Z,40.02
2023-04-13T10:22:02.766Z,39.88
2023-04-13T10:23:02.769Z,39.48
2023-04-13T10:24:03.306Z,39.10
2023-04-13T10:25:02.789Z,38.71
2023-04-13T10:26:02.731Z,38.74
2023-04-13T10:27:02.676Z,39.15
2023-04-13T10:28:02.620Z,38.92
2023-04-13T10:29:02.576Z,38.75
2023-04-13T10:30:02.551Z,38.51
2023-04-13T10:31:02.461Z,38.50
2023-04-13T10:32:02.746Z,38.64
2023-04-13T10:33:02.430Z,38.76
2023-04-13T10:34:02.295Z,38.67
2023-04-13T10:35:02.224Z,38.53
2023-04-13T10:36:02.170Z,38.82
2023-04-13T10:37:02.119Z,38.78
2023-04-13T10:38:02.095Z,38.74
2023-04-13T10:39:02.023Z,38.74
2023-04-13T10:40:03.774Z,38.86
2023-04-13T10:41:01.930Z,38.97
2023-04-13T10:42:01.866Z,38.91
2023-04-13T10:43:01.802Z,38.74
2023-04-13T10:44:03.179Z,38.72
2023-04-13T10:45:03.722Z,38.72
2023-04-13T10:46:01.683Z,38.65
2023-04-13T10:47:01.647Z,38.56
2023-04-13T10:48:01.583Z,38.46
2023-04-13T10:49:01.642Z,38.54
2023-04-13T10:50:01.413Z,38.53
2023-04-13T10:51:01.354Z,38.72
2023-04-13T10:52:01.346Z,38.96
2023-04-13T10:53:01.341Z,38.96
2023-04-13T10:54:01.353Z,38.85
2023-04-13T10:55:01.399Z,39.17
2023-04-13T10:56:01.478Z,39.39
2023-04-13T10:57:01.386Z,39.78
2023-04-13T10:58:01.439Z,39.79
2023-04-13T10:59:01.486Z,39.86
2023-04-13T11:00:01.373Z,40.23
2023-04-13T11:01:01.369Z,40.04
2023-04-13T11:02:01.505Z,40.04
2023-04-13T11:03:02.429Z,40.11
2023-04-13T11:04:05.080Z,40.09
2023-04-13T11:05:05.234Z,40.05
2023-04-13T11:06:01.320Z,40.32
2023-04-13T11:07:01.241Z,41.16
2023-04-13T11:08:01.205Z,41.62
2023-04-13T11:09:01.184Z,40.96
2023-04-13T11:10:03.729Z,40.98
2023-04-13T11:11:01.083Z,40.47
2023-04-13T11:12:01.039Z,39.63
2023-04-13T11:13:00.978Z,39.26
2023-04-13T11:14:01.061Z,39.82
2023-04-13T11:15:01.202Z,40.21
2023-04-13T11:16:00.840Z,40.01
2023-04-13T11:17:00.892Z,39.72
2023-04-13T11:18:00.811Z,40.35
2023-04-13T11:19:00.985Z,40.44
2023-04-13T11:20:00.612Z,40.35
2023-04-13T11:21:00.566Z,40.54
2023-04-13T11:22:00.510Z,39.83
2023-04-13T11:23:00.465Z,40.17
2023-04-13T11:24:00.402Z,39.66
2023-04-13T11:25:00.337Z,39.93
2023-04-13T11:26:00.280Z,39.68
2023-04-13T11:27:00.235Z,39.95
2023-04-13T11:28:00.169Z,40.03
2023-04-13T11:29:00.339Z,39.70
2023-04-13T11:30:00.070Z,39.73
2023-04-13T11:30:59.994Z,39.65
2023-04-13T11:31:59.965Z,39.50
2023-04-13T11:32:59.979Z,39.49
2023-04-13T11:34:00.022Z,39.36
2023-04-13T11:34:59.772Z,39.56
2023-04-13T11:35:59.719Z,39.54
2023-04-13T11:36:59.661Z,39.31
2023-04-13T11:37:59.625Z,39.23
2023-04-13T11:38:59.777Z,39.21
2023-04-13T11:39:59.501Z,39.24
2023-04-13T11:41:14.360Z,40.55
2023-04-13T11:42:00.408Z,40.52
2023-04-13T11:42:59.434Z,40.71
2023-04-13T11:43:59.305Z,40.60
2023-04-13T11:44:59.267Z,40.12
2023-04-13T11:45:59.258Z,40.03
2023-04-13T11:46:59.160Z,39.84
2023-04-13T11:47:59.163Z,39.58
2023-04-13T11:48:59.296Z,39.51
2023-04-13T11:49:59.008Z,39.35
2023-04-13T11:50:59.016Z,39.32
2023-04-13T11:51:59.023Z,39.24
2023-04-13T11:52:59.031Z,39.21
2023-04-13T11:53:59.042Z,39.26
2023-04-13T11:55:04.685Z,39.23
2023-04-13T11:56:00.027Z,39.29
2023-04-13T11:56:58.963Z,39.49
2023-04-13T11:57:58.893Z,39.62
2023-04-13T11:58:59.120Z,39.41
2023-04-13T11:59:58.791Z,39.37
2023-04-13T12:01:03.077Z,39.28
2023-04-13T12:02:03.826Z,40.06
2023-04-13T12:03:02.923Z,40.45
2023-04-13T12:04:12.015Z,40.65
2023-04-13T12:04:59.835Z,40.49
2023-04-13T12:05:58.653Z,40.15
2023-04-13T12:06:58.899Z,39.13
2023-04-13T12:07:58.768Z,37.97
2023-04-13T12:09:08.401Z,37.69
2023-04-13T12:10:04.630Z,36.58
2023-04-13T12:11:35.681Z,35.50
2023-04-13T12:13:15.305Z,37.77
2023-04-13T12:14:07.244Z,38.84
2023-04-13T12:16:08.622Z,38.73
2023-04-13T12:18:02.392Z,38.68
2023-04-13T12:19:00.221Z,38.75
2023-04-13T12:19:58.206Z,38.94
2023-04-13T12:20:58.018Z,38.97
2023-04-13T12:22:00.090Z,38.96
2023-04-13T12:23:06.941Z,38.96
2023-04-13T12:23:59.344Z,39.14
2023-04-13T12:24:59.324Z,39.21
2023-04-13T12:25:57.793Z,39.30
2023-04-13T12:27:16.278Z,39.42
2023-04-13T12:27:58.696Z,39.21
2023-04-13T12:28:57.937Z,39.10
2023-04-13T12:29:57.577Z,39.05
2023-04-13T12:30:57.546Z,39.00
2023-04-13T12:31:57.644Z,38.99
2023-04-13T12:32:57.499Z,39.01
2023-04-13T12:33:57.551Z,39.01
2023-04-13T12:34:57.326Z,38.96
2023-04-13T12:35:57.286Z,38.96
2023-04-13T12:36:57.310Z,38.99
2023-04-13T12:37:57.310Z,39.00
2023-04-13T12:38:57.561Z,38.98
2023-04-13T12:39:57.333Z,38.97
2023-04-13T12:40:57.475Z,38.94
2023-04-13T12:41:57.341Z,38.98
2023-04-13T12:42:57.374Z,38.94
2023-04-13T12:43:57.445Z,38.95
2023-04-13T12:44:57.371Z,38.99
2023-04-13T12:45:57.392Z,39.04
2023-04-13T12:46:57.418Z,38.99
2023-04-13T12:47:57.412Z,38.91
2023-04-13T12:48:57.600Z,38.90
2023-04-13T12:49:57.404Z,38.93
2023-04-13T12:50:57.402Z,38.90
2023-04-13T12:51:57.475Z,38.87
2023-04-13T12:52:57.402Z,39.36
2023-04-13T12:53:57.427Z,39.33
2023-04-13T12:54:57.466Z,39.31